Time;durP1;ratioP1;P1;durP2;ratioP2;P2;SDS_P1;SDS_P2;PMS_P1;PMS_P2;Temp;Humidity;BMP_temperature;BMP_pressure;BME280_temperature;BME280_humidity;BME280_pressure;Samples;Min_cycle;Max_cycle;Signal;HPM_P1;HPM_P2
2023/10/10 00:01:02;;;;;;;10.90;4.80;;;16.10;99.90;;;;;;5071497;28;20041;-74
2023/10/10 00:03:31;;;;;;;12.20;5.20;;;16.00;99.90;;;;;;5071683;28;20117;-75
2023/10/10 00:05:58;;;;;;;11.15;5.00;;;16.00;99.90;;;;;;5071369;28;20036;-74
2023/10/10 00:08:34;;;;;;;10.50;4.88;;;16.10;99.90;;;;;;5071330;28;20040;-74
2023/10/10 00:11:08;;;;;;;11.55;5.28;;;16.10;99.90;;;;;;5071708;28;20128;-74
2023/10/10 00:13:41;;;;;;;12.65;4.47;;;16.00;99.90;;;;;;5071426;28;20045;-74
2023/10/10 00:16:08;;;;;;;11.68;5.22;;;16.10;99.90;;;;;;5071317;28;20036;-74
2023/10/10 00:18:36;;;;;;;14.43;4.47;;;16.10;99.90;;;;;;5071221;28;20040;-74
2023/10/10 00:21:06;;;;;;;11.95;5.03;;;16.00;99.90;;;;;;5074206;28;20049;-74
2023/10/10 00:34:52;;;;;;;9.13;4.57;;;16.00;99.90;;;;;;5076116;28;20032;-74
2023/10/10 00:37:25;;;;;;;10.93;5.18;;;16.00;99.90;;;;;;5058141;28;20501;-74
2023/10/10 00:39:55;;;;;;;10.15;5.25;;;16.00;99.90;;;;;;5058458;28;20036;-74
2023/10/10 00:46:25;;;;;;;10.43;4.22;;;16.00;99.90;;;;;;5075906;28;20032;-74
2023/10/10 00:48:59;;;;;;;9.70;4.70;;;16.00;99.90;;;;;;5074509;28;20040;-74
2023/10/10 00:51:29;;;;;;;11.13;4.80;;;16.10;99.90;;;;;;5074595;28;20044;-74
2023/10/10 00:54:09;;;;;;;10.23;4.65;;;16.00;99.90;;;;;;5075642;28;20035;-74
2023/10/10 00:56:35;;;;;;;9.25;4.53;;;15.90;99.90;;;;;;5074441;28;20048;-74
2023/10/10 00:59:03;;;;;;;11.73;4.93;;;16.00;99.90;;;;;;5075670;28;20127;-74
2023/10/10 01:27:43;;;;;;;11.18;5.25;;;15.90;99.90;;;;;;5075187;28;20170;-74
2023/10/10 01:30:18;;;;;;;8.35;4.38;;;15.80;99.90;;;;;;5073389;28;20127;-74
2023/10/10 01:40:15;;;;;;;10.55;5.20;;;15.80;99.90;;;;;;5075505;28;20500;-73
2023/10/10 01:42:59;;;;;;;12.27;5.47;;;15.80;99.90;;;;;;5057781;28;20064;-73
2023/10/10 01:45:27;;;;;;;13.68;5.72;;;15.80;99.90;;;;;;5073780;28;20119;-73
2023/10/10 01:48:08;;;;;;;7.85;4.65;;;15.80;99.90;;;;;;5056875;28;20033;-72
2023/10/10 01:50:34;;;;;;;13.45;5.43;;;15.80;99.90;;;;;;5073403;28;20049;-72
2023/10/10 01:53:00;;;;;;;11.90;5.07;;;15.80;99.90;;;;;;5073638;28;20493;-72
2023/10/10 01:55:26;;;;;;;14.48;6.05;;;15.80;99.90;;;;;;5073254;28;20075;-72
2023/10/10 01:57:57;;;;;;;11.45;5.80;;;15.80;99.90;;;;;;5073288;28;20064;-72
2023/10/10 02:00:26;;;;;;;8.38;5.38;;;15.80;99.90;;;;;;5073270;28;20127;-72
2023/10/10 02:02:56;;;;;;;11.75;5.18;;;15.80;99.90;;;;;;5056504;28;20090;-72
2023/10/10 02:08:26;;;;;;;12.02;5.32;;;15.90;99.90;;;;;;5073120;28;20132;-72
2023/10/10 02:10:50;;;;;;;12.82;5.50;;;15.90;99.90;;;;;;5072628;28;20048;-73
2023/10/10 02:13:17;;;;;;;10.02;5.20;;;15.80;99.90;;;;;;5056603;28;20047;-73
2023/10/10 02:15:42;;;;;;;10.60;5.28;;;15.80;99.90;;;;;;5073121;28;20041;-73
2023/10/10 02:18:23;;;;;;;10.13;5.28;;;15.80;99.90;;;;;;5073050;28;20047;-73
2023/10/10 02:23:31;;;;;;;11.25;4.97;;;15.70;99.90;;;;;;5072763;28;20105;-73
2023/10/10 02:26:03;;;;;;;11.37;4.53;;;15.80;99.90;;;;;;5072743;28;20512;-73
2023/10/10 02:28:49;;;;;;;8.57;4.20;;;15.70;99.90;;;;;;5072927;28;20084;-73
2023/10/10 02:31:19;;;;;;;7.80;4.35;;;15.80;99.90;;;;;;5072900;28;20040;-73
2023/10/10 02:33:48;;;;;;;10.95;4.63;;;15.70;99.90;;;;;;5072598;28;20041;-73
2023/10/10 02:36:30;;;;;;;10.35;4.40;;;15.70;99.90;;;;;;5072468;28;20032;-73
2023/10/10 02:38:59;;;;;;;6.28;3.70;;;15.80;99.90;;;;;;5072542;28;20052;-72
2023/10/10 02:41:37;;;;;;;8.63;4.20;;;15.70;99.90;;;;;;5072437;28;20078;-72
2023/10/10 02:44:05;;;;;;;12.20;4.18;;;15.70;99.90;;;;;;5072171;28;20109;-72
2023/10/10 02:46:39;;;;;;;8.05;4.20;;;15.70;99.90;;;;;;5072253;28;20112;-72
2023/10/10 02:49:29;;;;;;;9.85;3.97;;;15.70;99.90;;;;;;5055614;28;20416;-72
2023/10/10 02:51:56;;;;;;;10.68;4.07;;;15.70;99.90;;;;;;5072296;28;20043;-72
2023/10/10 02:56:59;;;;;;;8.68;3.65;;;15.60;99.90;;;;;;5072213;28;20044;-72
2023/10/10 02:59:30;;;;;;;8.77;4.78;;;15.60;99.90;;;;;;5055568;28;20040;-72
2023/10/10 03:01:57;;;;;;;9.07;4.80;;;15.50;99.90;;;;;;5072159;28;20547;-72
2023/10/10 03:07:08;;;;;;;10.68;4.60;;;15.50;99.90;;;;;;5072096;28;20045;-72
2023/10/10 03:10:21;;;;;;;9.60;4.45;;;15.60;99.90;;;;;;5071952;28;20044;-72
2023/10/10 03:12:37;;;;;;;11.30;4.80;;;15.50;99.90;;;;;;5072059;28;20084;-72
2023/10/10 03:15:12;;;;;;;12.23;4.82;;;15.50;99.90;;;;;;5071939;28;20071;-72
2023/10/10 03:17:45;;;;;;;12.45;5.85;;;15.50;99.90;;;;;;5072052;28;20040;-72
2023/10/10 03:20:13;;;;;;;;;;;15.50;99.90;;;;;;5072375;28;20493;-72
2023/10/10 03:25:28;;;;;;;12.68;6.05;;;15.30;99.90;;;;;;5071803;28;20044;-72
2023/10/10 03:27:54;;;;;;;8.80;5.30;;;15.40;99.90;;;;;;5072121;28;20516;-72
2023/10/10 03:30:35;;;;;;;12.65;5.95;;;15.30;99.90;;;;;;5072018;28;20051;-72
2023/10/10 03:33:09;;;;;;;12.50;6.45;;;15.40;99.90;;;;;;5071802;28;20044;-72
2023/10/10 03:35:58;;;;;;;13.02;6.72;;;15.30;99.90;;;;;;5055681;28;20037;-72
2023/10/10 03:38:27;;;;;;;11.27;5.93;;;15.30;99.90;;;;;;5071992;28;20123;-72
2023/10/10 05:23:30;;;;;;;11.48;6.57;;;15.40;99.90;;;;;;5071620;28;20112;-72
2023/10/10 05:25:15;;;;;;;25.13;17.17;;;15.50;99.90;;;;;;5073909;28;20075;-73
2023/10/10 05:27:41;;;;;;;21.92;16.60;;;15.50;99.90;;;;;;5074401;28;20044;-73
2023/10/10 05:30:27;;;;;;;24.75;17.08;;;15.60;99.90;;;;;;5073873;28;20036;-73
2023/10/10 05:33:03;;;;;;;22.40;17.70;;;15.50;99.90;;;;;;5074133;28;20080;-73
2023/10/10 05:35:32;;;;;;;24.60;18.02;;;15.50;99.90;;;;;;5073681;28;20588;-73
2023/10/10 05:38:02;;;;;;;23.15;18.15;;;15.50;99.90;;;;;;5073710;28;20045;-73
2023/10/10 05:40:28;;;;;;;25.25;17.85;;;15.40;99.90;;;;;;5073935;28;20127;-73
2023/10/10 05:42:57;;;;;;;28.55;18.92;;;15.50;99.90;;;;;;5073876;28;20464;-73
2023/10/10 05:45:23;;;;;;;29.40;18.90;;;15.50;99.90;;;;;;5073740;28;20103;-73
2023/10/10 05:47:48;;;;;;;28.63;19.33;;;15.50;99.90;;;;;;5073497;28;20520;-73
2023/10/10 05:50:14;;;;;;;23.80;17.25;;;15.50;99.90;;;;;;5073452;28;20049;-73
2023/10/10 05:52:40;;;;;;;26.10;19.30;;;15.50;99.90;;;;;;5073638;28;20039;-73
2023/10/10 05:55:10;;;;;;;25.30;17.75;;;15.40;99.90;;;;;;5073494;28;20037;-73
2023/10/10 05:57:37;;;;;;;29.60;17.98;;;15.40;99.90;;;;;;5073548;28;20041;-73
2023/10/10 06:00:10;;;;;;;29.65;18.90;;;15.40;99.90;;;;;;5073854;28;20094;-74
2023/10/10 06:02:45;;;;;;;29.00;18.35;;;15.40;99.90;;;;;;5056943;28;20051;-74
2023/10/10 06:05:12;;;;;;;26.08;17.60;;;15.30;99.90;;;;;;5073077;28;20508;-74
2023/10/10 06:07:44;;;;;;;31.13;18.73;;;15.40;99.90;;;;;;5073134;28;20036;-74
2023/10/10 06:10:17;;;;;;;27.73;18.75;;;15.40;99.90;;;;;;5073095;28;20040;-74
2023/10/10 06:12:47;;;;;;;33.28;19.95;;;15.40;99.90;;;;;;5073090;28;20404;-74
2023/10/10 06:15:17;;;;;;;28.75;18.85;;;15.30;99.90;;;;;;5072951;28;20089;-74
2023/10/10 06:17:43;;;;;;;23.33;17.85;;;15.30;99.90;;;;;;5072649;28;20041;-74
2023/10/10 06:20:16;;;;;;;29.17;19.27;;;15.40;99.90;;;;;;5073153;28;20102;-74
2023/10/10 06:22:45;;;;;;;25.67;17.33;;;15.30;99.90;;;;;;5072832;28;20119;-74
2023/10/10 06:25:11;;;;;;;25.33;18.27;;;15.40;99.90;;;;;;5072842;28;20167;-74
2023/10/10 06:27:40;;;;;;;26.38;18.27;;;15.40;99.90;;;;;;5072742;28;20037;-75
2023/10/10 06:30:17;;;;;;;24.50;18.25;;;15.40;99.90;;;;;;5072621;28;20044;-75
2023/10/10 06:32:47;;;;;;;29.35;19.10;;;15.40;99.90;;;;;;5056061;28;20504;-72
2023/10/10 06:35:37;;;;;;;24.17;17.65;;;15.40;99.90;;;;;;5072683;28;20117;-72
2023/10/10 06:37:59;;;;;;;25.65;17.65;;;15.50;99.90;;;;;;5072208;28;20421;-72
2023/10/10 06:40:25;;;;;;;25.38;17.83;;;15.60;99.90;;;;;;5072497;28;20040;-72
2023/10/10 06:43:00;;;;;;;24.95;18.10;;;15.60;99.90;;;;;;5072475;28;20082;-72
2023/10/10 06:45:35;;;;;;;23.55;17.65;;;15.70;99.90;;;;;;5072640;28;20071;-72
2023/10/10 06:48:01;;;;;;;23.48;16.80;;;15.70;99.90;;;;;;5072493;28;20052;-72
2023/10/10 06:50:31;;;;;;;25.60;18.52;;;15.80;99.90;;;;;;5072539;28;20164;-72
2023/10/10 06:53:00;;;;;;;24.92;18.38;;;15.80;99.90;;;;;;5072327;28;20512;-72
2023/10/10 06:55:36;;;;;;;24.25;17.88;;;15.80;99.90;;;;;;5072444;28;20059;-72
2023/10/10 06:58:02;;;;;;;24.60;19.23;;;15.80;99.90;;;;;;5072506;28;20048;-72
2023/10/10 07:00:53;;;;;;;32.28;19.77;;;15.80;99.90;;;;;;5072171;28;20042;-72
2023/10/10 07:03:30;;;;;;;30.15;19.98;;;15.90;99.90;;;;;;5072762;28;20123;-72
2023/10/10 07:06:02;;;;;;;33.20;21.95;;;15.80;99.90;;;;;;5055406;28;20036;-72
2023/10/10 07:08:34;;;;;;;26.25;20.00;;;16.00;99.90;;;;;;5071958;28;20132;-72
2023/10/10 07:10:59;;;;;;;35.28;22.98;;;16.00;99.90;;;;;;5072450;28;20131;-71
2023/10/10 07:13:29;;;;;;;32.65;23.08;;;16.00;99.90;;;;;;5072032;28;20472;-71
2023/10/10 07:15:55;;;;;;;30.08;22.67;;;15.90;99.90;;;;;;5071891;28;20097;-71
2023/10/10 07:18:24;;;;;;;33.42;23.25;;;16.00;99.90;;;;;;5071842;28;20072;-72
2023/10/10 07:26:30;;;;;;;33.65;24.75;;;16.10;99.90;;;;;;5071834;28;20045;-73
2023/10/10 07:28:56;;;;;;;34.28;25.00;;;16.00;99.90;;;;;;5071281;28;20049;-72
2023/10/10 07:31:23;;;;;;;35.65;24.50;;;16.10;99.90;;;;;;5072059;28;20105;-72
2023/10/10 07:34:03;;;;;;;36.03;25.48;;;16.30;99.90;;;;;;5073323;28;20172;-72
2023/10/10 07:36:31;;;;;;;34.83;25.13;;;16.30;99.90;;;;;;5071723;28;20044;-72
2023/10/10 07:41:45;;;;;;;36.95;27.50;;;16.40;99.90;;;;;;5071747;28;20044;-72
2023/10/10 07:44:12;;;;;;;38.13;28.65;;;16.40;99.90;;;;;;5071915;28;20051;-72
2023/10/10 07:46:37;;;;;;;41.42;30.85;;;16.50;99.90;;;;;;5071571;28;20044;-72
2023/10/10 07:49:03;;;;;;;51.75;33.55;;;16.40;99.90;;;;;;5071791;28;20097;-72
2023/10/10 07:51:29;;;;;;;50.25;35.92;;;16.50;99.90;;;;;;5071923;28;20044;-72
2023/10/10 07:54:02;;;;;;;54.60;38.67;;;16.50;99.90;;;;;;5071607;28;20595;-72
2023/10/10 07:56:31;;;;;;;63.38;41.08;;;16.60;99.90;;;;;;5071456;28;20413;-71
2023/10/10 07:58:57;;;;;;;62.80;41.05;;;16.60;99.90;;;;;;5071523;28;20489;-72
2023/10/10 08:01:23;;;;;;;62.03;40.08;;;16.50;99.90;;;;;;5071518;28;20056;-72
2023/10/10 08:03:49;;;;;;;65.20;41.67;;;16.60;99.90;;;;;;5071510;28;20050;-72
2023/10/10 08:06:25;;;;;;;61.40;40.20;;;16.50;99.90;;;;;;5071422;28;20051;-72
2023/10/10 08:09:10;;;;;;;58.08;40.97;;;16.40;99.90;;;;;;5071456;28;20041;-72
2023/10/10 08:11:36;;;;;;;57.97;39.35;;;16.40;99.90;;;;;;5071492;28;20043;-72
2023/10/10 08:14:07;;;;;;;60.42;40.97;;;16.40;99.90;;;;;;5071385;28;20044;-72
2023/10/10 08:16:33;;;;;;;65.32;41.10;;;16.40;99.90;;;;;;5071190;28;20469;-72
2023/10/10 08:19:07;;;;;;;64.43;41.58;;;16.50;99.90;;;;;;5071407;28;20048;-72
2023/10/10 08:21:38;;;;;;;62.35;41.42;;;16.60;99.90;;;;;;5071349;28;20497;-72
2023/10/10 08:24:08;;;;;;;66.90;41.88;;;16.60;99.90;;;;;;5071366;28;20072;-72
2023/10/10 08:26:40;;;;;;;63.95;40.67;;;16.60;99.90;;;;;;5071233;28;20049;-72
2023/10/10 08:29:10;;;;;;;63.23;40.17;;;16.60;99.90;;;;;;5071283;28;20052;-72
2023/10/10 08:31:38;;;;;;;57.75;39.08;;;16.70;99.90;;;;;;5072059;28;20274;-72
2023/10/10 08:34:04;;;;;;;56.65;37.78;;;16.70;99.90;;;;;;5072754;28;20124;-72
2023/10/10 08:36:31;;;;;;;49.17;36.70;;;17.00;99.90;;;;;;5071091;28;20079;-72
2023/10/10 08:39:05;;;;;;;53.58;36.53;;;17.40;99.90;;;;;;5071163;28;20041;-72
2023/10/10 08:41:31;;;;;;;54.72;36.83;;;17.90;99.90;;;;;;5073171;28;20051;-72
2023/10/10 08:44:06;;;;;;;53.75;36.95;;;18.20;99.90;;;;;;5074995;28;20048;-72
2023/10/10 08:46:40;;;;;;;53.33;36.42;;;18.40;99.90;;;;;;5074625;28;20055;-72
2023/10/10 08:49:06;;;;;;;50.22;35.60;;;18.80;99.90;;;;;;5074605;28;20083;-72
2023/10/10 08:51:34;;;;;;;45.47;34.42;;;19.20;99.90;;;;;;5074582;28;20501;-72
2023/10/10 08:54:09;;;;;;;47.45;34.03;;;19.60;99.90;;;;;;5074578;28;20055;-72
2023/10/10 08:56:39;;;;;;;50.60;34.97;;;19.60;99.90;;;;;;5075659;28;20404;-72
2023/10/10 08:59:10;;;;;;;46.25;34.67;;;19.40;99.90;;;;;;5074501;28;20041;-72
2023/10/10 09:01:37;;;;;;;49.25;34.95;;;19.00;99.90;;;;;;5074704;28;20040;-72
2023/10/10 09:04:03;;;;;;;49.45;36.40;;;18.80;99.90;;;;;;5057719;28;20045;-72
2023/10/10 09:09:39;;;;;;;51.72;36.28;;;18.40;99.90;;;;;;5056674;28;20045;-72
2023/10/10 09:12:12;;;;;;;50.72;36.13;;;18.20;99.90;;;;;;5057101;28;20109;-72
2023/10/10 09:14:51;;;;;;;54.85;37.47;;;18.20;99.90;;;;;;5056586;28;20127;-72
2023/10/10 09:17:34;;;;;;;50.95;35.78;;;18.30;99.90;;;;;;5056802;28;20045;-72
2023/10/10 09:20:22;;;;;;;50.53;35.30;;;18.80;99.90;;;;;;5056593;28;20076;-72
2023/10/10 09:22:52;;;;;;;49.95;35.00;;;19.60;99.90;;;;;;5056813;28;20052;-72
2023/10/10 09:25:26;;;;;;;52.72;35.35;;;20.50;99.90;;;;;;5073325;28;20544;-72
2023/10/10 09:27:59;;;;;;;44.85;33.35;;;20.80;99.90;;;;;;5073136;28;20044;-72
2023/10/10 09:30:34;;;;;;;47.90;33.17;;;20.80;99.90;;;;;;5056389;28;20075;-72
2023/10/10 09:33:21;;;;;;;43.25;32.10;;;20.70;99.90;;;;;;5056315;28;20432;-72
2023/10/10 09:35:49;;;;;;;45.97;33.20;;;20.50;99.90;;;;;;5056948;28;20047;-72
2023/10/10 09:38:19;;;;;;;46.42;33.83;;;20.70;99.90;;;;;;5072930;28;20072;-72
2023/10/10 09:40:48;;;;;;;44.42;33.83;;;21.00;99.90;;;;;;5056203;28;20130;-72
2023/10/10 09:43:24;;;;;;;43.83;32.50;;;21.30;99.90;;;;;;5060367;28;20084;-72
2023/10/10 09:46:10;;;;;;;43.72;32.45;;;21.70;99.90;;;;;;5073587;28;20127;-72
2023/10/10 09:51:30;;;;;;;39.08;29.25;;;22.00;99.90;;;;;;5073257;28;20041;-72
2023/10/10 09:54:07;;;;;;;43.40;30.88;;;22.20;99.90;;;;;;5073746;28;20044;-72
2023/10/10 09:56:35;;;;;;;42.35;29.10;;;22.50;99.90;;;;;;5073309;28;20500;-72
2023/10/10 09:59:03;;;;;;;41.03;31.08;;;22.60;99.90;;;;;;5073334;28;20076;-73
2023/10/10 10:01:28;;;;;;;40.00;28.83;;;22.80;99.90;;;;;;5073562;28;20048;-73
2023/10/10 10:04:03;;;;;;;40.10;29.52;;;22.90;99.90;;;;;;5073226;28;20044;-72
2023/10/10 10:07:23;;;;;;;34.30;26.90;;;23.10;99.90;;;;;;5073177;28;20120;-72
2023/10/10 10:10:20;;;;;;;37.40;26.90;;;23.10;99.90;;;;;;5055493;28;20048;-72
2023/10/10 10:12:53;;;;;;;35.83;26.17;;;23.00;99.90;;;;;;5055481;28;20041;-72
2023/10/10 10:15:51;;;;;;;37.67;25.83;;;22.70;99.90;;;;;;5055471;28;20044;-72
2023/10/10 10:19:11;;;;;;;34.88;24.30;;;22.70;99.90;;;;;;5055557;28;20048;-72
2023/10/10 10:21:19;;;;;;;34.33;26.55;;;22.60;99.90;;;;;;5044713;28;20048;-72
2023/10/10 10:23:47;;;;;;;38.17;25.63;;;22.50;99.90;;;;;;5055521;28;20060;-72
2023/10/10 10:26:33;;;;;;;39.20;25.38;;;22.60;99.90;;;;;;5055172;28;20048;-72
2023/10/10 10:29:15;;;;;;;33.75;24.98;;;22.90;99.90;;;;;;5055461;28;20048;-72
2023/10/10 10:31:57;;;;;;;34.58;23.67;;;23.10;99.90;;;;;;5055397;28;20045;-72
2023/10/10 10:34:32;;;;;;;35.35;23.52;;;23.40;99.90;;;;;;5055472;28;20095;-72
2023/10/10 10:37:13;;;;;;;31.83;22.15;;;23.70;99.90;;;;;;5055098;28;20044;-72
2023/10/10 10:40:09;;;;;;;29.88;22.00;;;24.10;99.90;;;;;;5055022;28;20136;-72
2023/10/10 10:42:27;;;;;;;36.33;23.15;;;24.50;99.90;;;;;;5055637;28;20417;-72
2023/10/10 10:47:45;;;;;;;28.73;19.85;;;25.20;99.90;;;;;;5071766;28;20072;-72
2023/10/10 10:50:30;;;;;;;29.20;18.80;;;25.20;99.90;;;;;;5072294;28;20090;-72
2023/10/10 10:53:05;;;;;;;29.42;19.77;;;25.20;99.90;;;;;;5072364;28;20124;-72
2023/10/10 10:55:31;;;;;;;27.60;18.27;;;25.00;99.90;;;;;;5072530;28;20059;-72
2023/10/10 11:01:29;;;;;;;26.70;17.83;;;24.60;99.90;;;;;;5072246;28;20090;-72
2023/10/10 11:03:37;;;;;;;24.45;18.75;;;24.20;99.90;;;;;;5068143;28;20656;-72
2023/10/10 11:06:09;;;;;;;29.10;19.27;;;23.60;99.90;;;;;;5073565;28;20037;-72
2023/10/10 11:11:41;;;;;;;28.52;20.88;;;22.80;99.90;;;;;;5072087;28;20041;-72
2023/10/10 11:14:15;;;;;;;25.33;19.33;;;22.40;99.90;;;;;;5072034;28;20040;-72
2023/10/10 11:16:45;;;;;;;29.40;19.75;;;22.20;99.90;;;;;;5072340;28;20558;-72
2023/10/10 11:19:38;;;;;;;25.27;18.80;;;22.10;99.90;;;;;;5072248;28;20044;-71
2023/10/10 11:22:38;;;;;;;29.15;20.50;;;21.90;99.90;;;;;;5073363;28;20578;-71
2023/10/10 11:25:19;;;;;;;25.33;18.67;;;21.70;99.90;;;;;;5072626;28;20045;-70
2023/10/10 11:27:48;;;;;;;29.90;19.95;;;21.60;99.90;;;;;;5071920;28;20044;-71
2023/10/10 11:30:47;;;;;;;29.83;20.02;;;21.80;99.90;;;;;;5071767;28;20055;-71
2023/10/10 11:33:18;;;;;;;27.10;19.95;;;22.00;99.90;;;;;;5071012;28;20044;-72
2023/10/10 11:35:48;;;;;;;31.02;19.90;;;22.60;99.90;;;;;;5072935;28;20044;-72
2023/10/10 11:38:34;;;;;;;30.52;19.50;;;23.10;99.90;;;;;;5071781;28;20041;-72
2023/10/10 11:41:08;;;;;;;27.17;19.42;;;23.70;99.90;;;;;;5071742;28;20460;-71
2023/10/10 11:44:03;;;;;;;28.83;18.38;;;23.90;99.90;;;;;;5073094;28;20041;-70
2023/10/10 11:46:29;;;;;;;29.77;18.15;;;24.00;99.90;;;;;;5071625;28;20464;-70
2023/10/10 11:48:55;;;;;;;26.70;17.60;;;23.90;99.90;;;;;;5054913;28;20505;-70
2023/10/10 11:51:34;;;;;;;27.88;17.83;;;23.80;99.90;;;;;;5071956;28;20044;-71
2023/10/10 11:53:59;;;;;;;27.60;17.27;;;23.60;99.90;;;;;;5071651;28;20064;-71
2023/10/10 11:56:25;;;;;;;25.63;18.63;;;23.50;99.90;;;;;;5071570;28;20075;-71
2023/10/10 11:58:52;;;;;;;24.70;16.75;;;23.30;99.90;;;;;;5071551;28;20044;-71
2023/10/10 12:01:49;;;;;;;26.55;17.45;;;23.20;99.90;;;;;;5072892;28;20041;-71
2023/10/10 12:04:30;;;;;;;23.42;16.13;;;23.20;99.90;;;;;;5054901;28;20064;-71
2023/10/10 12:06:59;;;;;;;19.75;14.02;;;23.10;99.90;;;;;;5054836;28;20485;-71
2023/10/10 12:09:26;;;;;;;20.85;13.70;;;23.20;99.90;;;;;;5071368;28;20090;-71
2023/10/10 12:11:59;;;;;;;20.00;14.02;;;23.30;99.90;;;;;;5071370;28;20404;-71
2023/10/10 12:14:29;;;;;;;19.33;13.60;;;23.60;99.90;;;;;;5071652;28;20595;-70
2023/10/10 12:16:57;;;;;;;23.35;15.27;;;23.90;99.90;;;;;;5075013;28;20044;-70
2023/10/10 12:19:28;;;;;;;22.83;15.35;;;24.00;99.90;;;;;;5075155;28;20094;-70
2023/10/10 12:21:55;;;;;;;21.42;15.32;;;24.10;99.90;;;;;;5075113;28;20405;-70
2023/10/10 12:24:22;;;;;;;25.83;15.82;;;24.30;99.90;;;;;;5074994;28;20097;-70
2023/10/10 12:26:53;;;;;;;22.98;15.63;;;24.50;99.90;;;;;;5075030;28;20053;-70
2023/10/10 12:29:20;;;;;;;25.20;16.20;;;24.80;99.90;;;;;;5074947;28;20051;-70
2023/10/10 12:31:46;;;;;;;22.35;15.80;;;25.00;99.10;;;;;;5074895;28;20047;-70
2023/10/10 12:34:11;;;;;;;26.38;15.98;;;25.30;99.20;;;;;;5074872;28;20044;-70
2023/10/10 12:36:37;;;;;;;24.60;15.50;;;25.30;98.80;;;;;;5074790;28;20041;-71
2023/10/10 12:39:14;;;;;;;24.50;15.02;;;25.50;98.70;;;;;;5075067;28;20047;-71
2023/10/10 12:41:45;;;;;;;20.42;15.07;;;25.60;97.70;;;;;;5074828;28;20052;-71
2023/10/10 12:44:12;;;;;;;26.63;16.80;;;25.50;98.10;;;;;;5074761;28;20076;-71
2023/10/10 12:46:40;;;;;;;19.50;15.25;;;25.10;98.30;;;;;;5076120;28;20062;-70
2023/10/10 12:49:11;;;;;;;20.90;15.52;;;24.60;98.40;;;;;;5074563;28;20076;-71
2023/10/10 12:51:44;;;;;;;25.17;16.27;;;24.20;98.90;;;;;;5074643;28;20127;-71
2023/10/10 12:54:13;;;;;;;24.13;16.20;;;23.80;99.70;;;;;;5074654;28;20259;-77
2023/10/10 12:56:48;;;;;;;23.60;15.43;;;23.40;99.90;;;;;;5074522;28;20041;-70
2023/10/10 12:59:18;;;;;;;27.08;16.45;;;23.20;99.90;;;;;;5074460;28;20040;-70
2023/10/10 13:01:44;;;;;;;24.52;16.35;;;23.00;99.90;;;;;;5076215;28;20090;-70
2023/10/10 13:04:11;;;;;;;21.30;16.38;;;22.80;99.90;;;;;;5074677;28;20044;-70
2023/10/10 13:06:39;;;;;;;21.42;16.30;;;22.60;99.90;;;;;;5074410;28;20044;-70
2023/10/10 13:09:05;;;;;;;23.23;16.98;;;22.50;99.90;;;;;;5074228;28;20059;-70
2023/10/10 13:11:36;;;;;;;22.83;16.10;;;22.30;99.90;;;;;;5074565;28;20052;-70
2023/10/10 13:14:14;;;;;;;24.42;16.58;;;22.10;99.90;;;;;;5074515;28;20048;-68
2023/10/10 13:19:11;;;;;;;22.02;15.70;;;21.90;99.90;;;;;;5074359;28;20045;-71
2023/10/10 13:21:37;;;;;;;22.75;16.27;;;21.80;99.90;;;;;;5074108;28;20055;-71
2023/10/10 13:24:09;;;;;;;25.35;16.33;;;21.70;99.90;;;;;;5074291;28;20040;-71
2023/10/10 13:26:36;;;;;;;26.60;17.08;;;21.70;99.90;;;;;;5073515;28;20045;-71
2023/10/10 13:29:02;;;;;;;24.08;16.67;;;21.50;99.90;;;;;;5057293;28;20044;-71
2023/10/10 13:31:29;;;;;;;23.88;16.40;;;21.50;99.90;;;;;;5073934;28;20041;-71
2023/10/10 13:33:56;;;;;;;26.02;16.90;;;21.40;99.90;;;;;;5074313;28;20044;-71
2023/10/10 13:36:21;;;;;;;21.17;16.10;;;21.40;99.90;;;;;;5073773;28;20036;-71
2023/10/10 13:38:49;;;;;;;21.92;16.27;;;21.50;99.90;;;;;;5073788;28;20040;-71
2023/10/10 13:41:23;;;;;;;25.02;16.25;;;21.50;99.90;;;;;;5073714;28;20040;-71
2023/10/10 13:43:50;;;;;;;24.10;17.20;;;21.60;99.90;;;;;;5073732;28;20040;-71
2023/10/10 13:46:18;;;;;;;23.58;17.38;;;21.60;99.90;;;;;;5073565;28;20080;-71
2023/10/10 13:48:44;;;;;;;22.65;16.92;;;21.60;99.90;;;;;;5073506;28;20047;-71
2023/10/10 13:51:13;;;;;;;20.33;16.50;;;21.60;99.90;;;;;;5073530;28;20043;-71
2023/10/10 13:53:40;;;;;;;26.92;16.77;;;21.60;99.90;;;;;;5056862;28;20041;-71
2023/10/10 13:56:07;;;;;;;23.42;16.70;;;21.60;99.90;;;;;;5073362;28;20036;-71
2023/10/10 13:58:34;;;;;;;28.75;17.60;;;21.60;99.90;;;;;;5073379;28;20045;-71
2023/10/10 14:01:14;;;;;;;24.60;16.73;;;21.60;99.90;;;;;;5073324;28;20044;-71
2023/10/10 14:03:46;;;;;;;24.08;16.75;;;21.50;99.90;;;;;;5073351;28;20040;-71
2023/10/10 14:06:22;;;;;;;24.37;15.73;;;21.40;99.90;;;;;;5073167;28;20105;-71
2023/10/10 14:08:48;;;;;;;23.75;16.10;;;21.40;99.90;;;;;;5073177;28;20082;-72
2023/10/10 14:11:20;;;;;;;24.15;16.25;;;21.40;99.90;;;;;;5073362;28;20048;-72
2023/10/10 14:13:53;;;;;;;23.60;15.82;;;21.40;99.90;;;;;;5073105;28;20614;-72
2023/10/10 14:16:21;;;;;;;25.25;17.50;;;21.30;99.90;;;;;;5073012;28;20039;-72
2023/10/10 14:18:50;;;;;;;22.50;16.33;;;21.30;99.90;;;;;;5073158;28;20079;-72
2023/10/10 14:21:27;;;;;;;23.45;15.93;;;21.30;99.90;;;;;;5072888;28;20125;-72
2023/10/10 14:24:13;;;;;;;21.20;15.63;;;21.30;99.90;;;;;;5073151;28;20126;-72
2023/10/10 14:26:43;;;;;;;25.55;16.38;;;21.30;99.90;;;;;;5072796;28;20044;-72
2023/10/10 14:29:12;;;;;;;25.58;16.33;;;21.30;99.90;;;;;;5072660;28;20506;-71
2023/10/10 14:31:42;;;;;;;23.73;15.45;;;21.20;99.90;;;;;;5072708;28;20036;-71
2023/10/10 14:34:11;;;;;;;26.70;15.75;;;21.20;99.90;;;;;;5072971;28;20570;-71
2023/10/10 14:36:39;;;;;;;25.77;16.92;;;21.20;99.90;;;;;;5072495;28;20050;-71
2023/10/10 14:39:08;;;;;;;23.50;15.68;;;21.20;99.90;;;;;;5071584;28;20051;-71
2023/10/10 14:41:34;;;;;;;23.33;16.05;;;21.10;99.90;;;;;;5072802;28;20093;-71
2023/10/10 14:44:01;;;;;;;24.52;15.63;;;21.10;99.90;;;;;;5072518;28;20040;-71
2023/10/10 14:46:31;;;;;;;26.02;15.85;;;21.10;99.90;;;;;;5072311;28;20493;-71
2023/10/10 14:49:05;;;;;;;26.05;15.52;;;21.00;99.90;;;;;;5072520;28;20056;-72
2023/10/10 14:51:35;;;;;;;23.25;15.35;;;21.00;99.90;;;;;;5072671;28;20036;-72
2023/10/10 14:54:11;;;;;;;24.17;16.42;;;21.00;99.90;;;;;;5072499;28;20036;-73
2023/10/10 14:56:39;;;;;;;23.77;14.95;;;20.90;99.90;;;;;;5072732;28;20039;-72
2023/10/10 14:59:10;;;;;;;22.08;15.52;;;20.90;99.90;;;;;;5072611;28;20063;-71
2023/10/10 15:01:36;;;;;;;23.00;15.05;;;20.90;99.90;;;;;;5072455;28;20528;-71
2023/10/10 15:04:05;;;;;;;23.05;14.93;;;20.80;99.90;;;;;;5072270;28;20128;-71
2023/10/10 15:06:33;;;;;;;20.30;14.63;;;20.80;99.90;;;;;;5072169;28;20123;-72
2023/10/10 15:08:59;;;;;;;19.73;14.55;;;20.70;99.90;;;;;;5055302;28;20505;-72
2023/10/10 15:11:29;;;;;;;20.48;14.70;;;20.70;99.90;;;;;;5072075;28;20068;-71
2023/10/10 15:13:58;;;;;;;22.75;15.70;;;20.60;99.90;;;;;;5073229;28;20036;-71
2023/10/10 15:16:27;;;;;;;23.25;13.88;;;20.60;99.90;;;;;;5055387;28;20086;-71
2023/10/10 15:18:53;;;;;;;20.33;14.30;;;20.50;99.90;;;;;;5072002;28;20055;-73
2023/10/10 15:21:23;;;;;;;24.77;15.20;;;20.40;99.90;;;;;;5072009;28;20111;-73
2023/10/10 15:23:48;;;;;;;25.85;14.65;;;20.40;99.90;;;;;;5072215;28;20148;-74
2023/10/10 15:26:19;;;;;;;18.95;13.77;;;20.30;99.90;;;;;;5071983;28;20489;-74
2023/10/10 15:28:45;;;;;;;25.42;14.45;;;20.30;99.90;;;;;;5055373;28;20040;-74
2023/10/10 15:31:12;;;;;;;21.38;14.77;;;20.20;99.90;;;;;;5072386;28;20044;-74
2023/10/10 15:33:43;;;;;;;19.92;13.00;;;20.20;99.90;;;;;;5071973;28;20041;-74
2023/10/10 15:36:11;;;;;;;20.30;14.27;;;20.20;99.90;;;;;;5071816;28;20046;-74
2023/10/10 15:38:40;;;;;;;19.88;13.60;;;20.20;99.90;;;;;;5055077;28;20501;-73
2023/10/10 15:41:20;;;;;;;20.13;13.60;;;20.20;99.90;;;;;;5071736;28;20036;-73
2023/10/10 15:43:47;;;;;;;22.85;13.30;;;20.20;99.90;;;;;;5071752;28;20511;-73
2023/10/10 15:46:17;;;;;;;21.90;13.90;;;20.20;99.90;;;;;;5054818;28;20404;-73
2023/10/10 15:48:48;;;;;;;19.45;14.32;;;20.20;99.90;;;;;;5071643;28;20121;-73
2023/10/10 15:51:15;;;;;;;21.65;13.60;;;20.10;99.90;;;;;;5075420;28;20048;-73
2023/10/10 15:53:42;;;;;;;20.23;14.65;;;20.20;99.90;;;;;;5076311;28;20079;-73
2023/10/10 15:56:13;;;;;;;20.50;13.45;;;20.10;99.90;;;;;;5059175;28;20036;-73
2023/10/10 15:58:43;;;;;;;22.65;13.73;;;20.10;99.90;;;;;;5076304;28;20119;-73
2023/10/10 16:01:21;;;;;;;20.17;13.63;;;20.10;99.90;;;;;;5076496;28;20059;-73
2023/10/10 16:03:51;;;;;;;20.45;12.95;;;20.10;99.90;;;;;;5075851;28;20033;-74